sensor_id;sensor_type;location;lat;lon;timestamp;pressure;altitude;pressure_sealevel;temperature;humidity
40245;BME280;25963;42.694;23.600;2023-02-16T00:01:24;96477.34;;;-3.73;100.00
40245;BME280;25963;42.694;23.600;2023-02-16T00:03:51;96472.41;;;-3.76;100.00
40245;BME280;25963;42.694;23.600;2023-02-16T00:06:17;96474.63;;;-3.84;100.00
40245;BME280;25963;42.694;23.600;2023-02-16T00:08:46;96479.09;;;-3.73;100.00
40245;BME280;25963;42.694;23.600;2023-02-16T00:11:16;96482.13;;;-3.67;100.00
40245;BME280;25963;42.694;23.600;2023-02-16T00:14:02;96477.34;;;-3.73;100.00
40245;BME280;25963;42.694;23.600;2023-02-16T00:16:28;96483.69;;;-3.64;100.00
40245;BME280;25963;42.694;23.600;2023-02-16T00:18:54;96479.53;;;-3.67;100.00
40245;BME280;25963;42.694;23.600;2023-02-16T00:21:19;96481.72;;;-3.60;100.00
40245;BME280;25963;42.694;23.600;2023-02-16T00:23:45;96477.59;;;-3.63;100.00
40245;BME280;25963;42.694;23.600;2023-02-16T00:26:18;96475.31;;;-3.68;100.00
40245;BME280;25963;42.694;23.600;2023-02-16T00:28:44;96479.34;;;-3.63;100.00
40245;BME280;25963;42.694;23.600;2023-02-16T00:31:16;96473.41;;;-3.78;100.00
40245;BME280;25963;42.694;23.600;2023-02-16T00:33:42;96476.53;;;-3.73;100.00
40245;BME280;25963;42.694;23.600;2023-02-16T00:36:08;96473.94;;;-3.73;100.00
40245;BME280;25963;42.694;23.600;2023-02-16T00:38:33;96473.13;;;-3.74;100.00
40245;BME280;25963;42.694;23.600;2023-02-16T00:40:58;96475.78;;;-3.75;100.00
40245;BME280;25963;42.694;23.600;2023-02-16T00:43:27;96468.06;;;-3.75;100.00
40245;BME280;25963;42.694;23.600;2023-02-16T00:45:53;96472.28;;;-3.74;100.00
40245;BME280;25963;42.694;23.600;2023-02-16T00:48:19;96464.03;;;-3.79;100.00
40245;BME280;25963;42.694;23.600;2023-02-16T00:50:45;96469.63;;;-3.73;100.00
40245;BME280;25963;42.694;23.600;2023-02-16T00:53:10;96466.09;;;-3.72;100.00
40245;BME280;25963;42.694;23.600;2023-02-16T00:55:37;96464.66;;;-3.76;100.00
40245;BME280;25963;42.694;23.600;2023-02-16T01:00:57;96468.91;;;-3.89;100.00
40245;BME280;25963;42.694;23.600;2023-02-16T01:03:27;96469.69;;;-4.01;100.00
40245;BME280;25963;42.694;23.600;2023-02-16T01:05:53;96465.19;;;-3.98;100.00
40245;BME280;25963;42.694;23.600;2023-02-16T01:08:39;96464.16;;;-3.95;100.00
40245;BME280;25963;42.694;23.600;2023-02-16T01:11:24;96468.78;;;-4.00;100.00
40245;BME280;25963;42.694;23.600;2023-02-16T01:13:52;96452.56;;;-4.02;100.00
40245;BME280;25963;42.694;23.600;2023-02-16T01:16:38;96457.53;;;-3.99;100.00
40245;BME280;25963;42.694;23.600;2023-02-16T01:19:05;96465.09;;;-3.96;100.00
40245;BME280;25963;42.694;23.600;2023-02-16T01:21:31;96456.97;;;-3.90;100.00
40245;BME280;25963;42.694;23.600;2023-02-16T01:23:56;96453.84;;;-3.95;100.00
40245;BME280;25963;42.694;23.600;2023-02-16T01:26:21;96455.50;;;-3.94;100.00
40245;BME280;25963;42.694;23.600;2023-02-16T01:28:47;96448.97;;;-4.00;100.00
40245;BME280;25963;42.694;23.600;2023-02-16T01:31:13;96441.53;;;-4.04;100.00
40245;BME280;25963;42.694;23.600;2023-02-16T01:33:40;96449.44;;;-4.07;100.00
40245;BME280;25963;42.694;23.600;2023-02-16T01:36:08;96448.38;;;-4.18;100.00
40245;BME280;25963;42.694;23.600;2023-02-16T01:38:42;96441.94;;;-4.25;100.00
40245;BME280;25963;42.694;23.600;2023-02-16T01:41:14;96444.16;;;-4.19;100.00
40245;BME280;25963;42.694;23.600;2023-02-16T01:43:53;96441.19;;;-4.13;100.00
40245;BME280;25963;42.694;23.600;2023-02-16T01:46:28;96442.28;;;-4.17;100.00
40245;BME280;25963;42.694;23.600;2023-02-16T01:48:57;96438.47;;;-4.24;100.00
40245;BME280;25963;42.694;23.600;2023-02-16T01:51:27;96430.13;;;-4.42;100.00
40245;BME280;25963;42.694;23.600;2023-02-16T01:56:56;96434.25;;;-4.39;100.00
40245;BME280;25963;42.694;23.600;2023-02-16T02:02:15;96430.50;;;-4.62;100.00
40245;BME280;25963;42.694;23.600;2023-02-16T02:04:49;96423.97;;;-4.53;100.00
40245;BME280;25963;42.694;23.600;2023-02-16T02:10:20;96415.66;;;-4.44;100.00
40245;BME280;25963;42.694;23.600;2023-02-16T02:12:49;96427.63;;;-4.43;100.00
40245;BME280;25963;42.694;23.600;2023-02-16T02:15:17;96428.28;;;-4.40;100.00
40245;BME280;25963;42.694;23.600;2023-02-16T02:17:44;96417.97;;;-4.40;100.00
40245;BME280;25963;42.694;23.600;2023-02-16T02:39:55;96426.72;;;-4.56;100.00
40245;BME280;25963;42.694;23.600;2023-02-16T02:45:33;96430.75;;;-4.67;100.00
40245;BME280;25963;42.694;23.600;2023-02-16T02:47:59;96428.38;;;-4.70;100.00
40245;BME280;25963;42.694;23.600;2023-02-16T02:50:38;96423.03;;;-4.67;100.00
40245;BME280;25963;42.694;23.600;2023-02-16T02:53:10;96425.44;;;-4.64;100.00
40245;BME280;25963;42.694;23.600;2023-02-16T02:55:40;96423.03;;;-4.67;100.00
40245;BME280;25963;42.694;23.600;2023-02-16T02:58:26;96425.81;;;-4.70;100.00
40245;BME280;25963;42.694;23.600;2023-02-16T03:01:15;96430.69;;;-4.79;100.00
40245;BME280;25963;42.694;23.600;2023-02-16T03:03:47;96429.84;;;-4.80;100.00
40245;BME280;25963;42.694;23.600;2023-02-16T03:06:24;96436.00;;;-4.83;100.00
40245;BME280;25963;42.694;23.600;2023-02-16T03:08:58;96437.50;;;-4.93;100.00
40245;BME280;25963;42.694;23.600;2023-02-16T03:11:26;96427.63;;;-5.00;100.00
40245;BME280;25963;42.694;23.600;2023-02-16T03:14:35;96429.38;;;-5.01;100.00
40245;BME280;25963;42.694;23.600;2023-02-16T03:17:32;96423.69;;;-5.06;100.00
40245;BME280;25963;42.694;23.600;2023-02-16T03:20:18;96418.06;;;-5.13;100.00
40245;BME280;25963;42.694;23.600;2023-02-16T03:23:04;96430.00;;;-5.12;100.00
40245;BME280;25963;42.694;23.600;2023-02-16T03:25:50;96425.91;;;-5.14;100.00
40245;BME280;25963;42.694;23.600;2023-02-16T03:28:37;96430.00;;;-5.12;100.00
40245;BME280;25963;42.694;23.600;2023-02-16T03:31:29;96419.63;;;-5.24;100.00
40245;BME280;25963;42.694;23.600;2023-02-16T03:33:56;96415.03;;;-5.19;100.00
40245;BME280;25963;42.694;23.600;2023-02-16T03:36:27;96428.56;;;-5.16;100.00
40245;BME280;25963;42.694;23.600;2023-02-16T03:38:54;96419.81;;;-5.13;100.00
40245;BME280;25963;42.694;23.600;2023-02-16T03:41:21;96420.56;;;-5.11;100.00
40245;BME280;25963;42.694;23.600;2023-02-16T03:43:46;96423.16;;;-5.11;100.00
40245;BME280;25963;42.694;23.600;2023-02-16T03:46:12;96408.44;;;-5.09;100.00
40245;BME280;25963;42.694;23.600;2023-02-16T03:48:37;96423.31;;;-5.00;100.00
40245;BME280;25963;42.694;23.600;2023-02-16T03:51:03;96424.81;;;-4.96;100.00
40245;BME280;25963;42.694;23.600;2023-02-16T03:53:28;96427.09;;;-4.91;100.00
40245;BME280;25963;42.694;23.600;2023-02-16T03:55:53;96425.63;;;-4.95;100.00
40245;BME280;25963;42.694;23.600;2023-02-16T03:58:22;96432.59;;;-5.12;100.00
40245;BME280;25963;42.694;23.600;2023-02-16T04:00:48;96430.72;;;-5.24;100.00
40245;BME280;25963;42.694;23.600;2023-02-16T04:03:14;96424.03;;;-5.12;100.00
40245;BME280;25963;42.694;23.600;2023-02-16T04:05:40;96430.38;;;-5.18;100.00
40245;BME280;25963;42.694;23.600;2023-02-16T04:08:06;96416.41;;;-5.28;100.00
40245;BME280;25963;42.694;23.600;2023-02-16T04:10:32;96423.59;;;-5.19;100.00
40245;BME280;25963;42.694;23.600;2023-02-16T04:12:57;96415.47;;;-5.27;100.00
40245;BME280;25963;42.694;23.600;2023-02-16T04:15:25;96418.25;;;-5.16;100.00
40245;BME280;25963;42.694;23.600;2023-02-16T04:17:51;96426.53;;;-5.11;100.00
40245;BME280;25963;42.694;23.600;2023-02-16T04:20:22;96423.41;;;-5.16;100.00
40245;BME280;25963;42.694;23.600;2023-02-16T04:22:49;96416.78;;;-5.20;100.00
40245;BME280;25963;42.694;23.600;2023-02-16T04:25:15;96415.78;;;-5.17;100.00
40245;BME280;25963;42.694;23.600;2023-02-16T04:27:42;96420.81;;;-5.16;100.00
40245;BME280;25963;42.694;23.600;2023-02-16T04:30:10;96425.41;;;-5.21;100.00
40245;BME280;25963;42.694;23.600;2023-02-16T04:32:36;96423.72;;;-5.36;100.00
40245;BME280;25963;42.694;23.600;2023-02-16T04:35:02;96418.59;;;-5.36;100.00
40245;BME280;25963;42.694;23.600;2023-02-16T04:37:27;96416.19;;;-5.39;100.00
40245;BME280;25963;42.694;23.600;2023-02-16T04:39:53;96416.56;;;-5.45;100.00
40245;BME280;25963;42.694;23.600;2023-02-16T04:42:18;96419.31;;;-5.48;100.00
40245;BME280;25963;42.694;23.600;2023-02-16T04:44:44;96422.16;;;-5.39;100.00
40245;BME280;25963;42.694;23.600;2023-02-16T04:47:09;96425.47;;;-5.37;100.00
40245;BME280;25963;42.694;23.600;2023-02-16T04:49:35;96416.84;;;-5.36;100.00
40245;BME280;25963;42.694;23.600;2023-02-16T04:52:00;96413.19;;;-5.32;100.00
40245;BME280;25963;42.694;23.600;2023-02-16T04:54:29;96413.22;;;-5.47;100.00
40245;BME280;25963;42.694;23.600;2023-02-16T04:56:54;96418.47;;;-5.49;100.00
40245;BME280;25963;42.694;23.600;2023-02-16T04:59:19;96417.00;;;-5.53;100.00
40245;BME280;25963;42.694;23.600;2023-02-16T05:01:46;96423.88;;;-5.54;100.00
40245;BME280;25963;42.694;23.600;2023-02-16T05:04:13;96421.41;;;-5.55;100.00
40245;BME280;25963;42.694;23.600;2023-02-16T05:06:39;96422.41;;;-5.58;100.00
40245;BME280;25963;42.694;23.600;2023-02-16T05:09:05;96419.06;;;-5.60;100.00
40245;BME280;25963;42.694;23.600;2023-02-16T05:11:30;96424.03;;;-5.57;100.00
40245;BME280;25963;42.694;23.600;2023-02-16T05:14:21;96426.06;;;-5.62;100.00
40245;BME280;25963;42.694;23.600;2023-02-16T05:17:05;96432.69;;;-5.58;100.00
40245;BME280;25963;42.694;23.600;2023-02-16T05:19:30;96434.09;;;-5.52;100.00
40245;BME280;25963;42.694;23.600;2023-02-16T05:21:56;96433.44;;;-5.56;100.00
40245;BME280;25963;42.694;23.600;2023-02-16T05:24:21;96432.34;;;-5.52;100.00
40245;BME280;25963;42.694;23.600;2023-02-16T05:26:47;96423.78;;;-5.52;100.00
40245;BME280;25963;42.694;23.600;2023-02-16T05:29:12;96437.81;;;-5.58;100.00
40245;BME280;25963;42.694;23.600;2023-02-16T05:31:38;96437.81;;;-5.58;100.00
40245;BME280;25963;42.694;23.600;2023-02-16T05:34:03;96442.63;;;-5.52;100.00
40245;BME280;25963;42.694;23.600;2023-02-16T05:36:28;96452.56;;;-5.45;100.00
40245;BME280;25963;42.694;23.600;2023-02-16T05:38:54;96446.59;;;-5.46;100.00
40245;BME280;25963;42.694;23.600;2023-02-16T05:41:20;96457.53;;;-5.42;100.00
40245;BME280;25963;42.694;23.600;2023-02-16T05:43:55;96461.84;;;-5.43;100.00
40245;BME280;25963;42.694;23.600;2023-02-16T05:46:22;96458.44;;;-5.43;100.00
40245;BME280;25963;42.694;23.600;2023-02-16T05:48:48;96448.09;;;-5.58;100.00
40245;BME280;25963;42.694;23.600;2023-02-16T05:51:14;96456.41;;;-5.53;100.00
40245;BME280;25963;42.694;23.600;2023-02-16T05:53:40;96455.69;;;-5.40;100.00
40245;BME280;25963;42.694;23.600;2023-02-16T05:56:05;96454.88;;;-5.41;100.00
40245;BME280;25963;42.694;23.600;2023-02-16T05:58:31;96453.72;;;-5.21;100.00
40245;BME280;25963;42.694;23.600;2023-02-16T06:00:56;96460.75;;;-4.80;100.00
40245;BME280;25963;42.694;23.600;2023-02-16T06:03:23;96446.50;;;-4.43;100.00
40245;BME280;25963;42.694;23.600;2023-02-16T06:05:56;96454.09;;;-3.85;100.00
40245;BME280;25963;42.694;23.600;2023-02-16T06:08:22;96458.69;;;-3.36;100.00
40245;BME280;25963;42.694;23.600;2023-02-16T06:10:51;96455.53;;;-2.89;100.00
40245;BME280;25963;42.694;23.600;2023-02-16T06:13:18;96464.00;;;-2.61;100.00
40245;BME280;25963;42.694;23.600;2023-02-16T06:15:44;96458.63;;;-2.33;100.00
40245;BME280;25963;42.694;23.600;2023-02-16T06:18:10;96468.28;;;-2.11;100.00
40245;BME280;25963;42.694;23.600;2023-02-16T06:20:39;96459.88;;;-2.01;100.00
40245;BME280;25963;42.694;23.600;2023-02-16T06:23:06;96468.59;;;-1.78;100.00
40245;BME280;25963;42.694;23.600;2023-02-16T06:25:32;96476.69;;;-1.59;100.00
40245;BME280;25963;42.694;23.600;2023-02-16T06:27:58;96469.84;;;-1.36;100.00
40245;BME280;25963;42.694;23.600;2023-02-16T06:30:24;96485.25;;;-1.10;100.00
40245;BME280;25963;42.694;23.600;2023-02-16T06:32:49;96488.50;;;-0.96;100.00
40245;BME280;25963;42.694;23.600;2023-02-16T06:35:15;96492.03;;;-0.85;100.00
40245;BME280;25963;42.694;23.600;2023-02-16T06:37:40;96489.81;;;-0.79;100.00
40245;BME280;25963;42.694;23.600;2023-02-16T06:40:07;96485.22;;;-0.75;100.00
40245;BME280;25963;42.694;23.600;2023-02-16T06:42:36;96494.66;;;-0.63;100.00
40245;BME280;25963;42.694;23.600;2023-02-16T06:45:02;96490.69;;;-0.56;100.00
40245;BME280;25963;42.694;23.600;2023-02-16T06:47:28;96502.13;;;-0.36;100.00
40245;BME280;25963;42.694;23.600;2023-02-16T06:49:54;96506.63;;;-0.27;100.00
40245;BME280;25963;42.694;23.600;2023-02-16T06:52:20;96508.13;;;-0.13;100.00
40245;BME280;25963;42.694;23.600;2023-02-16T06:54:45;96501.53;;;-0.17;100.00
40245;BME280;25963;42.694;23.600;2023-02-16T06:57:10;96507.06;;;-0.10;100.00
40245;BME280;25963;42.694;23.600;2023-02-16T06:59:36;96504.13;;;-0.06;100.00
40245;BME280;25963;42.694;23.600;2023-02-16T07:02:01;96510.16;;;-0.05;100.00
40245;BME280;25963;42.694;23.600;2023-02-16T07:04:27;96510.13;;;-0.16;100.00
40245;BME280;25963;42.694;23.600;2023-02-16T07:06:52;96505.44;;;-0.11;100.00
40245;BME280;25963;42.694;23.600;2023-02-16T07:09:18;96506.94;;;0.03;100.00
40245;BME280;25963;42.694;23.600;2023-02-16T07:11:43;96503.28;;;-0.06;100.00
40245;BME280;25963;42.694;23.600;2023-02-16T07:14:09;96503.44;;;0.04;100.00
40245;BME280;25963;42.694;23.600;2023-02-16T07:16:34;96501.75;;;0.14;100.00
40245;BME280;25963;42.694;23.600;2023-02-16T07:19:00;96501.97;;;0.22;100.00
40245;BME280;25963;42.694;23.600;2023-02-16T07:21:25;96489.22;;;0.30;100.00
40245;BME280;25963;42.694;23.600;2023-02-16T07:23:51;96479.28;;;0.35;100.00
40245;BME280;25963;42.694;23.600;2023-02-16T07:26:16;96482.59;;;0.37;100.00
40245;BME280;25963;42.694;23.600;2023-02-16T07:28:42;96485.19;;;0.49;100.00
40245;BME280;25963;42.694;23.600;2023-02-16T07:31:09;96480.72;;;0.28;100.00
40245;BME280;25963;42.694;23.600;2023-02-16T07:33:35;96488.06;;;0.23;100.00
40245;BME280;25963;42.694;23.600;2023-02-16T07:36:01;96475.78;;;0.36;100.00
40245;BME280;25963;42.694;23.600;2023-02-16T07:38:26;96472.94;;;0.39;100.00
40245;BME280;25963;42.694;23.600;2023-02-16T07:40:51;96474.31;;;0.43;100.00
40245;BME280;25963;42.694;23.600;2023-02-16T07:43:17;96475.94;;;0.56;100.00
40245;BME280;25963;42.694;23.600;2023-02-16T07:45:43;96472.06;;;0.39;100.00
40245;BME280;25963;42.694;23.600;2023-02-16T07:48:08;96472.28;;;0.58;100.00
40245;BME280;25963;42.694;23.600;2023-02-16T07:50:35;96462.59;;;0.60;100.00
40245;BME280;25963;42.694;23.600;2023-02-16T07:53:01;96474.03;;;0.58;100.00
40245;BME280;25963;42.694;23.600;2023-02-16T07:55:27;96474.38;;;0.64;100.00
40245;BME280;25963;42.694;23.600;2023-02-16T07:57:53;96468.56;;;0.72;100.00
40245;BME280;25963;42.694;23.600;2023-02-16T08:00:21;96466.94;;;0.60;100.00
40245;BME280;25963;42.694;23.600;2023-02-16T08:02:47;96470.22;;;0.73;100.00
40245;BME280;25963;42.694;23.600;2023-02-16T08:05:13;96464.13;;;0.63;100.00
40245;BME280;25963;42.694;23.600;2023-02-16T08:07:38;96460.91;;;0.91;100.00
40245;BME280;25963;42.694;23.600;2023-02-16T08:10:05;96466.50;;;1.08;100.00
40245;BME280;25963;42.694;23.600;2023-02-16T08:12:31;96459.91;;;1.25;100.00
40245;BME280;25963;42.694;23.600;2023-02-16T08:14:56;96464.03;;;1.27;100.00
40245;BME280;25963;42.694;23.600;2023-02-16T08:17:22;96477.41;;;1.23;100.00
40245;BME280;25963;42.694;23.600;2023-02-16T08:19:47;96468.19;;;1.40;100.00
40245;BME280;25963;42.694;23.600;2023-02-16T08:22:16;96466.13;;;1.64;100.00
40245;BME280;25963;42.694;23.600;2023-02-16T08:24:42;96468.56;;;1.87;100.00
40245;BME280;25963;42.694;23.600;2023-02-16T08:27:08;96475.00;;;1.82;100.00
40245;BME280;25963;42.694;23.600;2023-02-16T08:29:34;96473.81;;;1.66;100.00
40245;BME280;25963;42.694;23.600;2023-02-16T08:32:00;96471.34;;;1.95;100.00
40245;BME280;25963;42.694;23.600;2023-02-16T08:34:32;96467.44;;;2.29;100.00
40245;BME280;25963;42.694;23.600;2023-02-16T08:36:58;96473.78;;;2.56;100.00
40245;BME280;25963;42.694;23.600;2023-02-16T08:39:26;96477.25;;;2.76;100.00
40245;BME280;25963;42.694;23.600;2023-02-16T08:41:53;96471.22;;;2.85;100.00
40245;BME280;25963;42.694;23.600;2023-02-16T08:44:20;96468.47;;;2.87;100.00
40245;BME280;25963;42.694;23.600;2023-02-16T08:46:47;96473.38;;;3.19;100.00
40245;BME280;25963;42.694;23.600;2023-02-16T08:49:15;96480.94;;;2.93;100.00
40245;BME280;25963;42.694;23.600;2023-02-16T08:51:46;96478.19;;;3.04;100.00
40245;BME280;25963;42.694;23.600;2023-02-16T08:54:18;96480.25;;;3.10;100.00
40245;BME280;25963;42.694;23.600;2023-02-16T08:56:44;96482.84;;;3.30;100.00
40245;BME280;25963;42.694;23.600;2023-02-16T08:59:17;96480.31;;;3.57;100.00
40245;BME280;25963;42.694;23.600;2023-02-16T09:01:43;96471.75;;;3.75;100.00
40245;BME280;25963;42.694;23.600;2023-02-16T09:04:09;96477.28;;;3.99;100.00
40245;BME280;25963;42.694;23.600;2023-02-16T09:06:37;96478.84;;;3.92;100.00
40245;BME280;25963;42.694;23.600;2023-02-16T09:09:03;96473.72;;;4.28;100.00
40245;BME280;25963;42.694;23.600;2023-02-16T09:11:30;96479.25;;;4.43;100.00
40245;BME280;25963;42.694;23.600;2023-02-16T09:13:56;96478.22;;;4.53;100.00
40245;BME280;25963;42.694;23.600;2023-02-16T09:16:23;96471.69;;;4.67;100.00
40245;BME280;25963;42.694;23.600;2023-02-16T09:18:48;96469.72;;;4.87;100.00
40245;BME280;25963;42.694;23.600;2023-02-16T09:21:22;96472.28;;;5.15;100.00
40245;BME280;25963;42.694;23.600;2023-02-16T09:23:50;96476.75;;;5.04;100.00
40245;BME280;25963;42.694;23.600;2023-02-16T09:26:19;96477.97;;;4.92;100.00
40245;BME280;25963;42.694;23.600;2023-02-16T09:28:46;96468.75;;;5.24;100.00
40245;BME280;25963;42.694;23.600;2023-02-16T09:31:21;96463.19;;;5.45;100.00
40245;BME280;25963;42.694;23.600;2023-02-16T09:33:52;96455.31;;;5.71;100.00
40245;BME280;25963;42.694;23.600;2023-02-16T09:36:18;96451.16;;;5.86;100.00
40245;BME280;25963;42.694;23.600;2023-02-16T09:38:43;96450.56;;;6.01;100.00
40245;BME280;25963;42.694;23.600;2023-02-16T09:41:29;96443.84;;;5.98;100.00
40245;BME280;25963;42.694;23.600;2023-02-16T09:46:46;96447.25;;;6.33;100.00
40245;BME280;25963;42.694;23.600;2023-02-16T09:49:31;96429.41;;;6.28;100.00
40245;BME280;25963;42.694;23.600;2023-02-16T09:54:38;96436.00;;;6.49;98.58
40245;BME280;25963;42.694;23.600;2023-02-16T09:57:56;96431.75;;;6.64;97.92
40245;BME280;25963;42.694;23.600;2023-02-16T10:00:23;96421.78;;;6.76;100.00
40245;BME280;25963;42.694;23.600;2023-02-16T10:09:02;96414.75;;;6.93;98.62
40245;BME280;25963;42.694;23.600;2023-02-16T10:16:53;96415.41;;;7.27;100.00
40245;BME280;25963;42.694;23.600;2023-02-16T10:19:32;96405.38;;;7.23;96.08
40245;BME280;25963;42.694;23.600;2023-02-16T10:22:02;96399.28;;;7.55;95.62
40245;BME280;25963;42.694;23.600;2023-02-16T10:24:41;96397.44;;;7.72;98.03
40245;BME280;25963;42.694;23.600;2023-02-16T10:27:12;96403.78;;;7.77;94.02
40245;BME280;25963;42.694;23.600;2023-02-16T10:29:39;96397.00;;;7.99;93.60
40245;BME280;25963;42.694;23.600;2023-02-16T10:32:24;96396.06;;;8.23;92.92
40245;BME280;25963;42.694;23.600;2023-02-16T10:35:59;96378.31;;;8.26;94.89
40245;BME280;25963;42.694;23.600;2023-02-16T10:38:08;96376.53;;;8.49;94.53
40245;BME280;25963;42.694;23.600;2023-02-16T10:45:53;96380.81;;;8.50;93.64
40245;BME280;25963;42.694;23.600;2023-02-16T10:48:20;96374.94;;;8.40;94.04
40245;BME280;25963;42.694;23.600;2023-02-16T10:50:59;96369.06;;;8.30;86.38
40245;BME280;25963;42.694;23.600;2023-02-16T10:53:51;96360.66;;;8.65;94.49
40245;BME280;25963;42.694;23.600;2023-02-16T10:59:24;96352.88;;;8.72;88.29
40245;BME280;25963;42.694;23.600;2023-02-16T11:01:53;96352.16;;;9.01;90.09
40245;BME280;25963;42.694;23.600;2023-02-16T11:04:39;96349.53;;;9.16;84.52
40245;BME280;25963;42.694;23.600;2023-02-16T11:07:09;96341.03;;;9.44;84.94
40245;BME280;25963;42.694;23.600;2023-02-16T11:09:37;96338.94;;;9.54;89.19
40245;BME280;25963;42.694;23.600;2023-02-16T11:12:14;96333.75;;;9.90;85.84
40245;BME280;25963;42.694;23.600;2023-02-16T11:14:47;96327.19;;;9.86;73.12
40245;BME280;25963;42.694;23.600;2023-02-16T11:17:14;96322.22;;;9.76;74.12
40245;BME280;25963;42.694;23.600;2023-02-16T11:19:54;96315.69;;;9.87;71.57
40245;BME280;25963;42.694;23.600;2023-02-16T11:22:35;96311.59;;;9.85;66.38
40245;BME280;25963;42.694;23.600;2023-02-16T11:25:19;96318.19;;;9.95;67.58
40245;BME280;25963;42.694;23.600;2023-02-16T11:30:26;96308.03;;;10.14;69.11
40245;BME280;25963;42.694;23.600;2023-02-16T11:32:54;96302.28;;;10.25;71.96
40245;BME280;25963;42.694;23.600;2023-02-16T11:35:20;96301.34;;;10.47;65.14
40245;BME280;25963;42.694;23.600;2023-02-16T11:37:46;96295.59;;;10.07;59.98
40245;BME280;25963;42.694;23.600;2023-02-16T11:40:27;96293.91;;;9.64;60.00
40245;BME280;25963;42.694;23.600;2023-02-16T11:42:56;96289.38;;;9.57;60.38
40245;BME280;25963;42.694;23.600;2023-02-16T11:45:29;96289.88;;;9.68;62.50
40245;BME280;25963;42.694;23.600;2023-02-16T11:48:01;96279.78;;;10.07;60.86
40245;BME280;25963;42.694;23.600;2023-02-16T11:50:31;96279.13;;;10.35;65.39
40245;BME280;25963;42.694;23.600;2023-02-16T11:55:42;96274.50;;;10.44;57.07
40245;BME280;25963;42.694;23.600;2023-02-16T11:58:25;96261.34;;;10.72;61.26
40245;BME280;25963;42.694;23.600;2023-02-16T12:06:20;96254.09;;;11.09;56.53
40245;BME280;25963;42.694;23.600;2023-02-16T12:12:14;96228.44;;;11.31;57.53
40245;BME280;25963;42.694;23.600;2023-02-16T12:14:54;96235.88;;;11.55;57.00
40245;BME280;25963;42.694;23.600;2023-02-16T12:22:45;96225.84;;;11.99;52.54
40245;BME280;25963;42.694;23.600;2023-02-16T12:28:01;96218.78;;;12.19;53.58
40245;BME280;25963;42.694;23.600;2023-02-16T12:36:45;96203.53;;;12.34;46.91
40245;BME280;25963;42.694;23.600;2023-02-16T12:41:50;96195.22;;;12.51;49.38
40245;BME280;25963;42.694;23.600;2023-02-16T12:44:24;96192.56;;;12.57;48.98
40245;BME280;25963;42.694;23.600;2023-02-16T12:46:59;96176.28;;;12.54;45.75
40245;BME280;25963;42.694;23.600;2023-02-16T12:49:31;96187.25;;;12.64;48.71
40245;BME280;25963;42.694;23.600;2023-02-16T12:52:11;96186.63;;;12.75;47.29
40245;BME280;25963;42.694;23.600;2023-02-16T12:54:41;96188.47;;;12.82;46.44
40245;BME280;25963;42.694;23.600;2023-02-16T12:57:19;96181.13;;;12.84;43.64
40245;BME280;25963;42.694;23.600;2023-02-16T13:04:59;96163.59;;;12.89;43.22
40245;BME280;25963;42.694;23.600;2023-02-16T13:07:31;96171.34;;;12.84;41.77
40245;BME280;25963;42.694;23.600;2023-02-16T13:10:21;96167.25;;;12.88;41.52
40245;BME280;25963;42.694;23.600;2023-02-16T13:12:53;96155.81;;;13.01;43.97
40245;BME280;25963;42.694;23.600;2023-02-16T13:15:33;96142.97;;;13.11;42.54
40245;BME280;25963;42.694;23.600;2023-02-16T13:18:27;96156.81;;;13.13;40.57
40245;BME280;25963;42.694;23.600;2023-02-16T13:20:55;96147.66;;;13.09;39.58
40245;BME280;25963;42.694;23.600;2023-02-16T13:45:00;96128.66;;;13.19;39.95
40245;BME280;25963;42.694;23.600;2023-02-16T13:47:30;96124.00;;;13.14;40.52
40245;BME280;25963;42.694;23.600;2023-02-16T13:49:58;96126.47;;;13.02;41.05
40245;BME280;25963;42.694;23.600;2023-02-16T13:52:32;96130.59;;;12.98;40.57
40245;BME280;25963;42.694;23.600;2023-02-16T13:55:01;96128.09;;;13.10;39.44
40245;BME280;25963;42.694;23.600;2023-02-16T14:03:12;96113.28;;;12.96;40.61
40245;BME280;25963;42.694;23.600;2023-02-16T14:06:32;96116.09;;;13.01;40.15
40245;BME280;25963;42.694;23.600;2023-02-16T14:14:32;96121.19;;;13.02;38.56
40245;BME280;25963;42.694;23.600;2023-02-16T14:32:55;96107.41;;;12.81;39.85
40245;BME280;25963;42.694;23.600;2023-02-16T14:35:28;96109.06;;;12.75;39.21
40245;BME280;25963;42.694;23.600;2023-02-16T14:43:02;96105.59;;;12.61;40.88
40245;BME280;25963;42.694;23.600;2023-02-16T14:57:03;96105.66;;;12.08;41.08
40245;BME280;25963;42.694;23.600;2023-02-16T14:59:39;96110.94;;;11.95;42.47
40245;BME280;25963;42.694;23.600;2023-02-16T15:02:39;96105.81;;;11.73;43.17
40245;BME280;25963;42.694;23.600;2023-02-16T15:05:21;96101.09;;;11.49;43.69
40245;BME280;25963;42.694;23.600;2023-02-16T15:07:52;96107.78;;;11.45;45.02
40245;BME280;25963;42.694;23.600;2023-02-16T15:10:24;96102.88;;;11.28;45.49
40245;BME280;25963;42.694;23.600;2023-02-16T15:12:54;96101.38;;;11.12;45.78
40245;BME280;25963;42.694;23.600;2023-02-16T15:15:25;96086.53;;;11.05;46.14
40245;BME280;25963;42.694;23.600;2023-02-16T15:17:52;96101.91;;;10.94;46.92
40245;BME280;25963;42.694;23.600;2023-02-16T15:20:27;96105.31;;;10.88;47.06
40245;BME280;25963;42.694;23.600;2023-02-16T15:22:55;96108.53;;;10.77;47.26
40245;BME280;25963;42.694;23.600;2023-02-16T15:25:28;96105.63;;;10.65;47.70
40245;BME280;25963;42.694;23.600;2023-02-16T15:28:18;96102.47;;;10.48;47.85
40245;BME280;25963;42.694;23.600;2023-02-16T15:30:48;96108.09;;;10.39;48.29
40245;BME280;25963;42.694;23.600;2023-02-16T15:35:51;96107.19;;;10.03;49.49
40245;BME280;25963;42.694;23.600;2023-02-16T15:38:23;96114.91;;;9.83;50.26
40245;BME280;25963;42.694;23.600;2023-02-16T15:40:53;96123.41;;;9.57;51.39
40245;BME280;25963;42.694;23.600;2023-02-16T15:43:32;96109.50;;;9.64;51.34
40245;BME280;25963;42.694;23.600;2023-02-16T15:46:00;96111.22;;;9.56;51.53